createdAt,value
2018-10-19T00:00:28.986Z,71.53
2018-10-19T00:01:28.962Z,71.80
2018-10-19T00:02:28.954Z,71.60
2018-10-19T00:03:28.941Z,71.64
2018-10-19T00:04:28.945Z,71.50
2018-10-19T00:05:28.919Z,71.80
2018-10-19T00:06:28.908Z,71.30
2018-10-19T00:07:28.901Z,71.80
2018-10-19T00:08:28.886Z,71.94
2018-10-19T00:09:28.898Z,71.73
2018-10-19T00:10:28.879Z,71.70
2018-10-19T00:11:28.852Z,70.79
2018-10-19T00:12:28.843Z,70.89
2018-10-19T00:13:28.831Z,70.99
2018-10-19T00:14:28.847Z,70.59
2018-10-19T00:15:28.809Z,70.52
2018-10-19T00:16:28.797Z,70.59
2018-10-19T00:17:28.785Z,70.38
2018-10-19T00:18:28.778Z,69.98
2018-10-19T00:19:28.763Z,70.48
2018-10-19T00:20:28.764Z,70.59
2018-10-19T00:21:28.740Z,70.48
2018-10-19T00:22:28.733Z,70.52
2018-10-19T00:23:28.718Z,70.38
2018-10-19T00:24:28.709Z,70.59
2018-10-19T00:25:28.728Z,70.59
2018-10-19T00:26:28.684Z,70.42
2018-10-19T00:27:28.674Z,70.42
2018-10-19T00:28:28.662Z,70.31
2018-10-19T00:29:28.652Z,70.11
2018-10-19T00:30:28.641Z,70.68
2018-10-19T00:31:28.644Z,70.42
2018-10-19T00:32:28.619Z,69.87
2018-10-19T00:33:28.606Z,70.59
2018-10-19T00:34:28.596Z,70.01
2018-10-19T00:35:28.586Z,70.62
2018-10-19T00:36:28.590Z,70.31
2018-10-19T00:37:28.563Z,70.42
2018-10-19T00:38:28.552Z,70.31
2018-10-19T00:39:28.543Z,70.21
2018-10-19T00:40:28.534Z,70.42
2018-10-19T00:41:28.519Z,70.62
2018-10-19T00:42:28.520Z,70.42
2018-10-19T00:43:28.495Z,70.52
2018-10-19T00:44:28.484Z,70.42
2018-10-19T00:45:28.475Z,70.52
2018-10-19T00:46:28.466Z,70.42
2018-10-19T00:47:28.876Z,70.21
2018-10-19T00:48:28.444Z,70.52
2018-10-19T00:49:28.430Z,70.52
2018-10-19T00:50:28.419Z,70.72
2018-10-19T00:51:28.412Z,70.72
2018-10-19T00:52:28.410Z,70.42
2018-10-19T00:53:28.393Z,70.62
2018-10-19T00:54:28.377Z,70.31
2018-10-19T00:55:28.367Z,70.62
2018-10-19T00:56:28.353Z,70.52
2018-10-19T00:57:28.355Z,70.31
2018-10-19T00:58:28.331Z,70.62
2018-10-19T00:59:28.321Z,70.52
2018-10-19T01:00:28.309Z,70.52
2018-10-19T01:01:28.300Z,70.42
2018-10-19T01:02:28.299Z,70.31
2018-10-19T01:03:28.287Z,70.42
2018-10-19T01:04:28.263Z,70.62
2018-10-19T01:05:28.252Z,70.31
2018-10-19T01:06:28.241Z,70.31
2018-10-19T01:07:28.244Z,70.42
2018-10-19T01:08:28.231Z,70.31
2018-10-19T01:09:28.209Z,70.42
2018-10-19T01:10:28.197Z,69.91
2018-10-19T01:11:28.187Z,70.21
2018-10-19T01:12:28.174Z,70.62
2018-10-19T01:13:28.177Z,70.01
2018-10-19T01:14:28.152Z,70.31
2018-10-19T01:15:28.142Z,70.21
2018-10-19T01:16:28.131Z,70.21
2018-10-19T01:17:28.119Z,70.42
2018-10-19T01:18:28.119Z,70.42
2018-10-19T01:19:28.097Z,70.42
2018-10-19T01:20:28.086Z,70.31
2018-10-19T01:21:28.076Z,70.01
2018-10-19T01:22:28.063Z,70.31
2018-10-19T01:23:28.072Z,70.42
2018-10-19T01:24:28.052Z,70.11
2018-10-19T01:25:28.029Z,70.42
2018-10-19T01:26:28.022Z,70.01
2018-10-19T01:27:28.007Z,70.11
2018-10-19T01:28:27.998Z,69.81
2018-10-19T01:29:28.009Z,69.94
2018-10-19T01:30:27.971Z,70.01
2018-10-19T01:31:27.965Z,70.72
2018-10-19T01:32:27.950Z,70.31
2018-10-19T01:33:27.947Z,70.04
2018-10-19T01:34:27.948Z,70.11
2018-10-19T01:35:27.917Z,70.14
2018-10-19T01:36:27.907Z,69.70
2018-10-19T01:37:27.894Z,69.81
2018-10-19T01:38:27.882Z,70.11
2018-10-19T01:39:27.876Z,69.84
2018-10-19T01:40:27.877Z,69.94
2018-10-19T01:41:27.853Z,70.01
2018-10-19T01:42:27.838Z,70.35
2018-10-19T01:43:27.827Z,69.64
2018-10-19T01:44:27.832Z,69.74
2018-10-19T01:45:27.817Z,69.74
2018-10-19T01:46:27.793Z,69.74
2018-10-19T01:47:27.784Z,69.94
2018-10-19T01:48:27.771Z,70.01
2018-10-19T01:49:27.762Z,69.74
2018-10-19T01:50:27.770Z,70.42
2018-10-19T01:51:27.738Z,69.74
2018-10-19T01:52:27.726Z,70.04
2018-10-19T01:53:27.720Z,70.01
2018-10-19T01:54:27.705Z,70.25
2018-10-19T01:55:27.707Z,70.35
2018-10-19T01:56:27.691Z,69.84
2018-10-19T01:57:27.670Z,69.94
2018-10-19T01:58:27.665Z,69.94
2018-10-19T01:59:27.649Z,70.14
2018-10-19T02:00:27.660Z,70.14
2018-10-19T02:01:27.625Z,69.74
2018-10-19T02:02:49.675Z,70.25
2018-10-19T02:03:27.602Z,70.14
2018-10-19T02:04:27.593Z,69.84
2018-10-19T02:05:27.582Z,70.35
2018-10-19T02:06:27.585Z,70.04
2018-10-19T02:07:27.559Z,70.14
2018-10-19T02:08:27.549Z,69.94
2018-10-19T02:09:27.537Z,70.14
2018-10-19T02:10:27.529Z,69.94
2018-10-19T02:11:27.528Z,70.14
2018-10-19T02:12:27.517Z,70.04
2018-10-19T02:13:27.493Z,70.14
2018-10-19T02:14:27.487Z,69.94
2018-10-19T02:15:27.477Z,70.25
2018-10-19T02:16:27.470Z,70.04
2018-10-19T02:17:27.447Z,70.04
2018-10-19T02:18:27.439Z,69.94
2018-10-19T02:19:27.426Z,69.94
2018-10-19T02:20:27.418Z,70.35
2018-10-19T02:21:27.428Z,69.74
2018-10-19T02:22:27.394Z,70.14
2018-10-19T02:23:27.382Z,70.04
2018-10-19T02:24:27.376Z,69.94
2018-10-19T02:25:27.369Z,70.35
2018-10-19T02:26:27.349Z,70.35
2018-10-19T02:27:27.353Z,70.14
2018-10-19T02:28:27.325Z,70.04
2018-10-19T02:29:27.331Z,69.97
2018-10-19T02:30:27.305Z,69.64
2018-10-19T02:31:27.293Z,70.35
2018-10-19T02:32:27.342Z,69.97
2018-10-19T02:33:27.270Z,70.18
2018-10-19T02:34:27.260Z,70.07
2018-10-19T02:35:27.247Z,70.04
2018-10-19T02:36:27.240Z,69.87
2018-10-19T02:37:27.229Z,70.14
2018-10-19T02:38:27.226Z,69.94
2018-10-19T02:39:27.204Z,70.04
2018-10-19T02:40:27.194Z,70.18
2018-10-19T02:41:27.194Z,70.18
2018-10-19T02:42:27.169Z,70.14
2018-10-19T02:43:27.158Z,70.18
2018-10-19T02:44:27.146Z,70.18
2018-10-19T02:45:27.146Z,70.07
2018-10-19T02:46:27.139Z,70.28
2018-10-19T02:47:27.115Z,69.97
2018-10-19T02:48:27.115Z,70.07
2018-10-19T02:49:27.093Z,70.07
2018-10-19T02:50:27.082Z,70.07
2018-10-19T02:51:27.070Z,70.07
2018-10-19T02:52:27.063Z,70.58
2018-10-19T02:53:27.078Z,70.28
2018-10-19T02:54:27.037Z,70.07
2018-10-19T02:55:27.027Z,70.07
2018-10-19T02:56:27.017Z,69.97
2018-10-19T02:57:27.007Z,70.28
2018-10-19T02:58:26.993Z,70.07
2018-10-19T02:59:26.995Z,70.18
2018-10-19T03:00:26.971Z,70.28
2018-10-19T03:01:26.961Z,70.18
2018-10-19T03:02:26.953Z,69.97
2018-10-19T03:03:26.945Z,70.18
2018-10-19T03:04:26.943Z,70.07
2018-10-19T03:05:26.920Z,70.07
2018-10-19T03:06:26.903Z,69.97
2018-10-19T03:07:26.894Z,70.38
2018-10-19T03:08:26.884Z,69.97
2018-10-19T03:09:26.897Z,70.38
2018-10-19T03:10:26.859Z,70.18
2018-10-19T03:11:26.923Z,70.18
2018-10-19T03:12:26.837Z,69.97
2018-10-19T03:13:26.826Z,69.97
2018-10-19T03:14:26.829Z,70.28
2018-10-19T03:15:26.805Z,70.07
2018-10-19T03:16:26.799Z,70.07
2018-10-19T03:17:26.783Z,69.87
2018-10-19T03:18:26.771Z,70.18
2018-10-19T03:19:26.772Z,70.31
2018-10-19T03:20:26.759Z,70.31
2018-10-19T03:21:26.743Z,69.97
2018-10-19T03:22:26.728Z,70.01
2018-10-19T03:23:26.715Z,69.90
2018-10-19T03:24:26.715Z,70.01
2018-10-19T03:25:26.699Z,70.07
2018-10-19T03:26:26.685Z,70.21
2018-10-19T03:27:26.673Z,70.01
2018-10-19T03:28:26.663Z,69.97
2018-10-19T03:29:26.658Z,70.41
2018-10-19T03:30:26.649Z,70.10
2018-10-19T03:31:26.627Z,69.97
2018-10-19T03:32:26.614Z,70.51
2018-10-19T03:33:26.604Z,70.31
2018-10-19T03:34:26.593Z,70.10
2018-10-19T03:35:26.596Z,70.31
2018-10-19T03:36:26.568Z,70.72
2018-10-19T03:37:26.559Z,70.21
2018-10-19T03:38:26.550Z,70.10
2018-10-19T03:39:26.538Z,70.31
2018-10-19T03:40:26.538Z,70.01
2018-10-19T03:41:26.526Z,70.21
2018-10-19T03:42:26.505Z,70.01
2018-10-19T03:43:26.492Z,70.21
2018-10-19T03:44:26.484Z,70.10
2018-10-19T03:45:26.489Z,70.10
2018-10-19T03:46:26.458Z,69.80
2018-10-19T03:47:26.449Z,69.80
2018-10-19T03:48:26.437Z,70.21
2018-10-19T03:49:26.425Z,70.01
2018-10-19T03:50:26.412Z,69.90
2018-10-19T03:51:26.417Z,70.01
2018-10-19T03:52:26.392Z,70.10
2018-10-19T03:53:26.380Z,70.01
2018-10-19T03:54:26.371Z,70.10
2018-10-19T03:55:26.359Z,70.21
2018-10-19T03:56:26.361Z,70.10
2018-10-19T03:57:26.338Z,70.92
2018-10-19T03:58:26.324Z,70.21
2018-10-19T03:59:26.315Z,69.80
2018-10-19T04:00:26.300Z,70.21
2018-10-19T04:01:26.302Z,70.21
2018-10-19T04:02:26.283Z,70.01
2018-10-19T04:03:26.288Z,70.10
2018-10-19T04:04:26.258Z,70.10
2018-10-19T04:05:26.246Z,70.10
2018-10-19T04:06:26.250Z,70.10
2018-10-19T04:07:26.223Z,70.10
2018-10-19T04:08:26.215Z,70.21
2018-10-19T04:09:26.203Z,70.10
2018-10-19T04:10:26.190Z,70.10
2018-10-19T04:11:26.192Z,70.24
2018-10-19T04:12:26.181Z,70.10
2018-10-19T04:13:26.159Z,70.21
2018-10-19T04:14:26.146Z,70.04
2018-10-19T04:15:26.134Z,70.10
2018-10-19T04:16:26.122Z,70.21
2018-10-19T04:17:26.152Z,70.14
2018-10-19T04:18:26.101Z,69.93
2018-10-19T04:19:26.088Z,70.21
2018-10-19T04:20:26.080Z,70.45
2018-10-19T04:21:26.081Z,70.04
2018-10-19T04:22:26.056Z,70.65
2018-10-19T04:23:26.063Z,70.24
2018-10-19T04:24:26.041Z,70.75
2018-10-19T04:25:26.023Z,70.01
2018-10-19T04:26:26.011Z,70.24
2018-10-19T04:27:26.076Z,70.34
2018-10-19T04:28:25.996Z,69.93
2018-10-19T04:29:25.979Z,70.14
2018-10-19T04:30:25.971Z,70.34
2018-10-19T04:31:25.960Z,70.24
2018-10-19T04:32:25.956Z,69.93
2018-10-19T04:33:25.933Z,70.24
2018-10-19T04:34:25.923Z,70.14
2018-10-19T04:35:25.911Z,70.24
2018-10-19T04:36:25.899Z,70.14
2018-10-19T04:37:25.907Z,70.55
2018-10-19T04:38:25.877Z,70.14
2018-10-19T04:39:25.871Z,70.34
2018-10-19T04:40:25.855Z,70.24
2018-10-19T04:41:25.943Z,70.14
2018-10-19T04:42:25.959Z,70.04
2018-10-19T04:43:25.837Z,70.14
2018-10-19T04:44:25.811Z,70.34
2018-10-19T04:45:25.804Z,70.75
2018-10-19T04:46:25.790Z,69.93
2018-10-19T04:47:25.792Z,70.14
2018-10-19T04:48:25.765Z,70.04
2018-10-19T04:49:25.766Z,70.14
2018-10-19T04:50:25.742Z,70.14
2018-10-19T04:51:25.734Z,70.14
2018-10-19T04:52:25.735Z,70.55
2018-10-19T04:53:25.711Z,70.14
2018-10-19T04:54:25.700Z,70.24
2018-10-19T04:55:25.702Z,70.24
2018-10-19T04:56:25.679Z,70.14
2018-10-19T04:57:25.667Z,70.65
2018-10-19T04:58:25.687Z,70.24
2018-10-19T04:59:25.644Z,70.04
2018-10-19T05:00:25.639Z,70.65
2018-10-19T05:01:25.621Z,70.17
2018-10-19T05:02:25.618Z,70.14
2018-10-19T05:03:25.604Z,70.04
2018-10-19T05:04:25.625Z,70.24
2018-10-19T05:05:25.688Z,70.34
2018-10-19T05:06:25.669Z,70.14
2018-10-19T05:07:25.556Z,70.28
2018-10-19T05:08:25.621Z,70.14
2018-10-19T05:09:25.535Z,70.55
2018-10-19T05:10:25.521Z,70.24
2018-10-19T05:11:25.510Z,70.24
2018-10-19T05:12:25.591Z,70.45
2018-10-19T05:13:25.503Z,70.24
2018-10-19T05:14:25.490Z,70.55
2018-10-19T05:15:25.471Z,70.38
2018-10-19T05:16:25.454Z,70.48
2018-10-19T05:17:25.443Z,69.97
2018-10-19T05:18:25.432Z,70.17
2018-10-19T05:19:25.432Z,70.28
2018-10-19T05:20:25.429Z,70.07
2018-10-19T05:21:25.399Z,70.07
2018-10-19T05:22:25.393Z,70.38
2018-10-19T05:23:25.378Z,70.07
2018-10-19T05:24:25.422Z,69.97
2018-10-19T05:25:25.354Z,70.17
2018-10-19T05:26:25.342Z,70.07
2018-10-19T05:27:25.330Z,69.97
2018-10-19T05:28:25.321Z,70.28
2018-10-19T05:29:25.329Z,69.97
2018-10-19T05:30:25.299Z,70.48
2018-10-19T05:31:25.287Z,70.28
2018-10-19T05:32:25.274Z,70.07
2018-10-19T05:33:25.266Z,70.28
2018-10-19T05:34:25.252Z,70.07
2018-10-19T05:35:25.255Z,70.07
2018-10-19T05:36:25.232Z,70.78
2018-10-19T05:37:25.220Z,70.38
2018-10-19T05:38:25.210Z,70.28
2018-10-19T05:39:25.199Z,70.17
2018-10-19T05:40:25.203Z,70.28
2018-10-19T05:41:25.187Z,70.17
2018-10-19T05:42:25.165Z,70.17
2018-10-19T05:43:25.167Z,70.28
2018-10-19T05:44:25.142Z,70.17
2018-10-19T05:45:25.132Z,70.07
2018-10-19T05:46:25.132Z,70.28
2018-10-19T05:47:25.108Z,69.87
2018-10-19T05:48:25.096Z,70.38
2018-10-19T05:49:25.089Z,70.07
2018-10-19T05:50:25.079Z,70.17
2018-10-19T05:51:25.079Z,70.51
2018-10-19T05:52:25.052Z,70.17
2018-10-19T05:53:25.043Z,70.28
2018-10-19T05:54:25.033Z,69.97
2018-10-19T05:55:25.031Z,70.38
2018-10-19T05:56:25.021Z,70.51
2018-10-19T05:57:24.998Z,70.21
2018-10-19T05:58:24.989Z,70.21
2018-10-19T05:59:24.976Z,70.10
2018-10-19T06:00:24.967Z,70.00
2018-10-19T06:01:24.967Z,70.10
2018-10-19T06:02:25.128Z,70.41
2018-10-19T06:03:24.963Z,70.10
2018-10-19T06:04:24.924Z,70.21
2018-10-19T06:05:24.907Z,70.17
2018-10-19T06:06:24.901Z,70.10
2018-10-19T06:07:24.954Z,70.00
2018-10-19T06:08:24.956Z,70.31
2018-10-19T06:09:24.862Z,70.31
2018-10-19T06:10:24.851Z,70.21
2018-10-19T06:11:24.842Z,70.21
2018-10-19T06:12:24.841Z,70.10
2018-10-19T06:13:25.283Z,70.31
2018-10-19T06:14:24.835Z,70.21
2018-10-19T06:15:24.831Z,70.10
2018-10-19T06:16:24.787Z,70.00
2018-10-19T06:17:24.776Z,70.31
2018-10-19T06:18:25.241Z,70.21
2018-10-19T06:19:24.792Z,70.41
2018-10-19T06:20:24.763Z,70.21
2018-10-19T06:21:24.786Z,70.31
2018-10-19T06:22:24.721Z,70.31
2018-10-19T06:23:24.721Z,70.10
2018-10-19T06:24:24.696Z,70.10
2018-10-19T06:25:24.685Z,70.75
2018-10-19T06:26:24.775Z,70.00
2018-10-19T06:27:24.666Z,70.31
2018-10-19T06:28:24.672Z,70.21
2018-10-19T06:29:24.642Z,70.21
2018-10-19T06:30:24.635Z,70.00
2018-10-19T06:31:24.618Z,70.21
2018-10-19T06:32:24.608Z,70.21
2018-10-19T06:33:24.622Z,70.34
2018-10-19T06:34:24.582Z,70.10
2018-10-19T06:35:24.575Z,70.21
2018-10-19T06:36:24.563Z,70.21
2018-10-19T06:37:24.553Z,71.02
2018-10-19T06:38:24.541Z,70.82
2018-10-19T06:39:24.541Z,69.90
2018-10-19T06:40:24.517Z,69.90
2018-10-19T06:41:24.509Z,70.61
2018-10-19T06:42:24.494Z,69.90
2018-10-19T06:43:24.484Z,70.24
2018-10-19T06:44:24.485Z,70.54
2018-10-19T06:45:24.463Z,70.51
2018-10-19T06:46:24.450Z,70.61
2018-10-19T06:47:24.492Z,70.65
2018-10-19T06:48:24.427Z,70.31
2018-10-19T06:49:24.437Z,70.54
2018-10-19T06:50:24.406Z,70.10
2018-10-19T06:51:24.399Z,70.61
2018-10-19T06:52:24.383Z,70.61
2018-10-19T06:53:24.373Z,70.54
2018-10-19T06:54:24.362Z,70.65
2018-10-19T06:55:24.367Z,70.44
2018-10-19T06:56:24.341Z,71.43
2018-10-19T06:57:24.339Z,70.41
2018-10-19T06:58:24.319Z,70.54
2018-10-19T06:59:24.370Z,70.54
2018-10-19T07:00:24.308Z,70.34
2018-10-19T07:01:24.288Z,70.44
2018-10-19T07:02:24.275Z,70.65
2018-10-19T07:03:24.270Z,70.85
2018-10-19T07:04:24.263Z,70.65
2018-10-19T07:05:24.252Z,70.95
2018-10-19T07:06:24.228Z,70.54
2018-10-19T07:07:24.220Z,70.65
2018-10-19T07:08:24.255Z,70.51
2018-10-19T07:09:24.196Z,70.41
2018-10-19T07:10:24.195Z,70.75
2018-10-19T07:11:24.185Z,70.65
2018-10-19T07:12:24.165Z,70.85
2018-10-19T07:13:24.150Z,70.54
2018-10-19T07:14:24.146Z,70.51
2018-10-19T07:15:24.146Z,70.44
2018-10-19T07:16:24.117Z,70.54
2018-10-19T07:17:24.107Z,70.41
2018-10-19T07:18:24.098Z,70.21
2018-10-19T07:19:24.086Z,70.65
2018-10-19T07:20:24.117Z,70.85
2018-10-19T07:21:24.063Z,70.85
2018-10-19T07:22:24.052Z,70.65
2018-10-19T07:23:24.040Z,70.61
2018-10-19T07:24:24.031Z,70.51
2018-10-19T07:25:24.017Z,70.54
2018-10-19T07:26:24.238Z,70.54
2018-10-19T07:27:23.996Z,70.31
2018-10-19T07:28:23.987Z,70.54
2018-10-19T07:29:23.984Z,70.24
2018-10-19T07:30:23.964Z,70.54
2018-10-19T07:31:23.965Z,70.61
2018-10-19T07:32:23.941Z,70.10
2018-10-19T07:33:23.932Z,71.36
2018-10-19T07:34:23.922Z,70.54
2018-10-19T07:35:23.909Z,70.41
2018-10-19T07:36:23.965Z,70.21
2018-10-19T07:37:23.900Z,70.24
2018-10-19T07:38:23.877Z,70.41
2018-10-19T07:39:23.867Z,70.21
2018-10-19T07:40:23.863Z,70.24
2018-10-19T07:41:23.863Z,70.54
2018-10-19T07:42:23.949Z,70.44
2018-10-19T07:43:23.822Z,70.31
2018-10-19T07:44:23.813Z,70.24
2018-10-19T07:45:23.798Z,70.54
2018-10-19T07:46:23.787Z,70.61
2018-10-19T07:47:23.978Z,70.44
2018-10-19T07:48:23.826Z,70.65
2018-10-19T07:49:23.754Z,70.51
2018-10-19T07:50:23.741Z,70.51
2018-10-19T07:51:23.731Z,70.54
2018-10-19T07:52:23.737Z,71.56
2018-10-19T07:53:23.711Z,70.54
2018-10-19T07:54:23.716Z,70.44
2018-10-19T07:55:23.687Z,70.51
2018-10-19T07:56:23.675Z,70.51
2018-10-19T07:57:23.676Z,70.31
2018-10-19T07:58:23.658Z,70.41
2018-10-19T07:59:23.643Z,70.31
2018-10-19T08:00:23.633Z,70.24
2018-10-19T08:01:23.624Z,70.51
2018-10-19T08:02:23.622Z,70.51
2018-10-19T08:03:23.612Z,70.31
2018-10-19T08:04:23.591Z,70.51
2018-10-19T08:05:23.577Z,70.51
2018-10-19T08:06:23.564Z,70.41
2018-10-19T08:07:23.555Z,70.31
2018-10-19T08:08:23.556Z,70.41
2018-10-19T08:09:23.534Z,70.51
2018-10-19T08:10:23.520Z,70.41
2018-10-19T08:11:23.582Z,70.51
2018-10-19T08:12:23.499Z,70.10
2018-10-19T08:13:23.504Z,70.41
2018-10-19T08:14:23.488Z,70.41
2018-10-19T08:15:23.467Z,70.61
2018-10-19T08:16:23.456Z,70.41
2018-10-19T08:17:23.451Z,70.41
2018-10-19T08:18:23.447Z,70.41
2018-10-19T08:19:23.440Z,70.41
2018-10-19T08:20:23.410Z,70.72
2018-10-19T08:21:23.406Z,70.61
2018-10-19T08:22:23.390Z,70.82
2018-10-19T08:23:23.384Z,70.51
2018-10-19T08:24:23.369Z,70.51
2018-10-19T08:25:23.370Z,70.72
2018-10-19T08:26:23.346Z,70.82
2018-10-19T08:27:23.408Z,70.72
2018-10-19T08:28:23.326Z,70.61
2018-10-19T08:29:23.333Z,70.61
2018-10-19T08:30:23.301Z,70.82
2018-10-19T08:31:23.289Z,70.72
2018-10-19T08:32:23.278Z,70.72
2018-10-19T08:33:23.273Z,70.41
2018-10-19T08:34:23.268Z,70.61
2018-10-19T08:35:23.247Z,70.92
2018-10-19T08:36:23.234Z,70.82
2018-10-19T08:37:23.233Z,70.58
2018-10-19T08:38:23.212Z,70.58
2018-10-19T08:39:23.214Z,70.82
2018-10-19T08:40:23.206Z,70.51
2018-10-19T08:41:23.193Z,70.21
2018-10-19T08:42:23.170Z,70.61
2018-10-19T08:43:23.158Z,70.72
2018-10-19T08:44:23.172Z,70.78
2018-10-19T08:45:23.148Z,71.02
2018-10-19T08:46:23.125Z,71.30
2018-10-19T08:47:23.113Z,71.39
2018-10-19T08:48:23.102Z,72.14
2018-10-19T08:49:23.092Z,71.84
2018-10-19T08:50:23.093Z,72.01
2018-10-19T08:51:23.070Z,72.01
2018-10-19T08:52:23.057Z,71.80
2018-10-19T08:53:23.050Z,71.70
2018-10-19T08:54:23.035Z,71.80
2018-10-19T08:55:23.056Z,71.50
2018-10-19T08:56:23.026Z,71.91
2018-10-19T08:57:23.006Z,71.60
2018-10-19T08:58:23.048Z,71.70
2018-10-19T08:59:23.004Z,71.30
2018-10-19T09:00:23.696Z,71.19
2018-10-19T09:01:22.962Z,71.50
2018-10-19T09:02:22.951Z,71.39
2018-10-19T09:03:22.995Z,71.50
2018-10-19T09:04:22.924Z,71.19
2018-10-19T09:05:22.955Z,71.30
2018-10-19T09:06:22.903Z,71.16
2018-10-19T09:07:22.891Z,71.56
2018-10-19T09:08:22.880Z,71.30
2018-10-19T09:09:22.878Z,71.56
2018-10-19T09:10:22.859Z,71.91
2018-10-19T09:11:22.949Z,71.77
2018-10-19T09:12:22.889Z,71.67
2018-10-19T09:13:22.826Z,71.87
2018-10-19T09:14:22.814Z,72.08
2018-10-19T09:15:22.900Z,71.97
2018-10-19T09:16:22.805Z,71.47
2018-10-19T09:17:22.793Z,71.67
2018-10-19T09:18:22.817Z,71.77
2018-10-19T09:19:22.758Z,71.97
2018-10-19T09:20:22.747Z,72.08
2018-10-19T09:21:22.746Z,71.87
2018-10-19T09:22:22.724Z,71.47
2018-10-19T09:23:22.713Z,72.08
2018-10-19T09:24:22.704Z,71.67
2018-10-19T09:25:22.694Z,71.97
2018-10-19T09:26:22.695Z,71.87
2018-10-19T09:27:22.670Z,71.77
2018-10-19T09:28:22.662Z,71.36
2018-10-19T09:29:22.670Z,71.77
2018-10-19T09:30:22.634Z,71.33
2018-10-19T09:31:22.637Z,71.94
2018-10-19T09:32:22.612Z,72.17
2018-10-19T09:33:22.620Z,71.47
2018-10-19T09:34:22.588Z,71.97
2018-10-19T09:35:22.630Z,72.04
2018-10-19T09:36:22.772Z,71.94
2018-10-19T09:37:22.573Z,72.45
2018-10-19T09:38:22.547Z,72.65
2018-10-19T09:39:22.535Z,72.55
2018-10-19T09:40:22.599Z,72.25
2018-10-19T09:41:22.562Z,72.45
2018-10-19T09:42:22.515Z,72.34
2018-10-19T09:43:22.489Z,72.45
2018-10-19T09:44:22.487Z,72.65
2018-10-19T09:45:22.472Z,72.25
2018-10-19T09:46:22.458Z,72.45
2018-10-19T09:47:22.512Z,72.65
2018-10-19T09:48:22.437Z,72.45
2018-10-19T09:49:22.420Z,72.65
2018-10-19T09:50:22.414Z,72.41
2018-10-19T09:51:22.406Z,72.65
2018-10-19T09:52:22.390Z,72.82
2018-10-19T09:53:22.411Z,72.31
2018-10-19T09:54:22.369Z,72.62
2018-10-19T09:55:22.470Z,72.72
2018-10-19T09:56:22.346Z,72.41
2018-10-19T09:57:22.347Z,72.82
2018-10-19T09:58:22.334Z,72.82
2018-10-19T09:59:22.312Z,72.62
2018-10-19T10:00:22.310Z,72.72
2018-10-19T10:01:22.289Z,72.92
2018-10-19T10:02:22.280Z,73.63
2018-10-19T10:03:22.283Z,72.69
2018-10-19T10:04:22.260Z,73.30
2018-10-19T10:05:22.247Z,72.69
2018-10-19T10:06:22.233Z,72.48
2018-10-19T10:07:22.221Z,72.48
2018-10-19T10:08:22.224Z,72.38
2018-10-19T10:09:22.200Z,72.38
2018-10-19T10:10:22.186Z,72.69
2018-10-19T10:11:22.184Z,72.38
2018-10-19T10:12:22.169Z,72.58
2018-10-19T10:13:22.169Z,72.38
2018-10-19T10:14:22.146Z,72.58
2018-10-19T10:15:22.296Z,72.08
2018-10-19T10:16:22.127Z,72.58
2018-10-19T10:17:22.109Z,72.04
2018-10-19T10:18:22.118Z,72.14
2018-10-19T10:19:22.091Z,72.38
2018-10-19T10:20:22.078Z,72.34
2018-10-19T10:21:22.064Z,72.45
2018-10-19T10:22:22.062Z,72.38
2018-10-19T10:23:22.043Z,72.34
2018-10-19T10:24:22.048Z,72.34
2018-10-19T10:25:22.075Z,72.14
2018-10-19T10:26:22.011Z,72.14
2018-10-19T10:27:21.998Z,72.34
2018-10-19T10:28:22.001Z,72.34
2018-10-19T10:29:21.986Z,72.25
2018-10-19T10:30:21.964Z,72.04
2018-10-19T10:31:21.953Z,72.25
2018-10-19T10:32:21.961Z,71.91
2018-10-19T10:33:21.931Z,72.25
2018-10-19T10:34:21.931Z,72.25
2018-10-19T10:35:21.910Z,72.14
2018-10-19T10:36:21.899Z,72.25
2018-10-19T10:37:21.894Z,71.84
2018-10-19T10:38:21.876Z,71.73
2018-10-19T10:39:21.974Z,72.11
2018-10-19T10:40:21.858Z,72.04
2018-10-19T10:41:21.844Z,72.04
2018-10-19T10:42:21.832Z,72.31
2018-10-19T10:43:21.824Z,72.31
2018-10-19T10:44:21.822Z,71.91
2018-10-19T10:45:21.853Z,72.01
2018-10-19T10:46:21.788Z,71.91
2018-10-19T10:47:21.795Z,72.11
2018-10-19T10:48:21.765Z,72.11
2018-10-19T10:49:21.768Z,72.11
2018-10-19T10:50:21.754Z,72.11
2018-10-19T10:51:21.732Z,72.11
2018-10-19T10:52:21.722Z,72.31
2018-10-19T10:53:21.711Z,72.01
2018-10-19T10:54:21.704Z,72.11
2018-10-19T10:55:21.713Z,72.31
2018-10-19T10:56:21.678Z,72.11
2018-10-19T10:57:21.669Z,72.21
2018-10-19T10:58:21.654Z,72.21
2018-10-19T10:59:21.642Z,72.08
2018-10-19T11:00:21.644Z,72.21
2018-10-19T11:01:21.621Z,72.11
2018-10-19T11:02:21.609Z,71.77
2018-10-19T11:03:21.602Z,72.11
2018-10-19T11:04:21.590Z,71.97
2018-10-19T11:05:21.593Z,71.97
2018-10-19T11:06:21.570Z,71.97
2018-10-19T11:07:21.699Z,71.97
2018-10-19T11:08:21.545Z,71.91
2018-10-19T11:09:21.537Z,71.77
2018-10-19T11:10:21.532Z,72.08
2018-10-19T11:11:21.508Z,71.57
2018-10-19T11:12:21.510Z,71.77
2018-10-19T11:13:21.490Z,71.97
2018-10-19T11:14:21.477Z,71.88
2018-10-19T11:15:21.468Z,71.88
2018-10-19T11:16:21.470Z,71.97
2018-10-19T11:17:21.446Z,71.67
2018-10-19T11:18:21.433Z,71.57
2018-10-19T11:19:21.420Z,71.67
2018-10-19T11:20:21.410Z,71.67
2018-10-19T11:21:21.414Z,71.67
2018-10-19T11:22:21.390Z,71.97
2018-10-19T11:23:21.390Z,71.67
2018-10-19T11:24:21.365Z,71.67
2018-10-19T11:25:21.355Z,71.64
2018-10-19T11:26:21.363Z,71.57
2018-10-19T11:27:21.349Z,71.84
2018-10-19T11:28:21.331Z,71.88
2018-10-19T11:29:21.308Z,71.57
2018-10-19T11:30:21.298Z,71.57
2018-10-19T11:31:21.285Z,71.67
2018-10-19T11:32:21.286Z,71.53
2018-10-19T11:33:21.265Z,71.97
2018-10-19T11:34:21.251Z,71.36
2018-10-19T11:35:21.240Z,71.44
2018-10-19T11:36:21.229Z,71.44
2018-10-19T11:37:21.241Z,71.36
2018-10-19T11:38:21.210Z,71.44
2018-10-19T11:39:21.210Z,71.47
2018-10-19T11:40:21.190Z,71.53
2018-10-19T11:41:21.176Z,71.53
2018-10-19T11:42:21.165Z,71.44
2018-10-19T11:43:21.154Z,71.53
2018-10-19T11:44:21.154Z,71.13
2018-10-19T11:45:21.130Z,71.13
2018-10-19T11:46:21.119Z,71.03
2018-10-19T11:47:21.109Z,71.23
2018-10-19T11:48:21.098Z,71.33
2018-10-19T11:49:21.157Z,71.33
2018-10-19T11:50:21.073Z,71.03
2018-10-19T11:51:21.069Z,71.13
2018-10-19T11:52:21.053Z,71.33
2018-10-19T11:53:21.063Z,71.64
2018-10-19T11:54:21.032Z,71.64
2018-10-19T11:55:21.025Z,71.64
2018-10-19T11:56:21.010Z,71.03
2018-10-19T11:57:21.003Z,71.64
2018-10-19T11:58:20.988Z,71.64
2018-10-19T11:59:20.988Z,71.64
2018-10-19T12:00:20.966Z,71.44
2018-10-19T12:01:20.953Z,71.84
2018-10-19T12:02:20.941Z,71.53
2018-10-19T12:03:20.936Z,71.53
2018-10-19T12:04:20.932Z,71.53
2018-10-19T12:05:20.906Z,71.13
2018-10-19T12:06:20.896Z,71.23
2018-10-19T12:07:20.885Z,71.23
2018-10-19T12:08:20.878Z,71.03
2018-10-19T12:09:20.881Z,71.13
2018-10-19T12:10:20.864Z,71.13
2018-10-19T12:11:20.840Z,71.23
2018-10-19T12:12:20.828Z,71.13
2018-10-19T12:13:20.820Z,71.20
2018-10-19T12:14:20.814Z,70.92
2018-10-19T12:15:20.809Z,70.92
2018-10-19T12:16:20.919Z,70.89
2018-10-19T12:17:20.773Z,71.13
2018-10-19T12:18:20.763Z,71.20
2018-10-19T12:19:20.775Z,71.40
2018-10-19T12:20:20.754Z,71.70
2018-10-19T12:21:20.789Z,71.30
2018-10-19T12:22:20.720Z,71.53
2018-10-19T12:23:20.706Z,71.80
2018-10-19T12:24:20.695Z,71.40
2018-10-19T12:25:20.724Z,71.60
2018-10-19T12:26:21.085Z,71.73
2018-10-19T12:27:21.240Z,71.50
2018-10-19T12:28:20.861Z,71.60
2018-10-19T12:29:21.238Z,71.70
2018-10-19T12:30:21.239Z,71.50
2018-10-19T12:31:20.629Z,71.60
2018-10-19T12:32:20.606Z,71.70
2018-10-19T12:33:20.611Z,71.40
2018-10-19T12:34:20.585Z,71.30
2018-10-19T12:35:20.604Z,71.09
2018-10-19T12:36:20.575Z,71.30
2018-10-19T12:37:20.552Z,71.20
2018-10-19T12:38:20.540Z,71.20
2018-10-19T12:39:20.527Z,70.89
2018-10-19T12:40:20.522Z,70.79
2018-10-19T12:41:20.518Z,70.79
2018-10-19T12:42:20.497Z,71.09
2018-10-19T12:43:20.485Z,71.40
2018-10-19T12:44:20.477Z,71.30
2018-10-19T12:45:20.462Z,71.30
2018-10-19T12:46:20.464Z,71.40
2018-10-19T12:47:20.449Z,71.20
2018-10-19T12:48:20.428Z,71.60
2018-10-19T12:49:20.419Z,71.50
2018-10-19T12:50:20.407Z,71.50
2018-10-19T12:51:20.413Z,71.40
2018-10-19T12:52:20.382Z,71.60